Time;durP1;ratioP1;P1;durP2;ratioP2;P2;SDS_P1;SDS_P2;PMS_P1;PMS_P2;Temp;Humidity;BMP_temperature;BMP_pressure;BME280_temperature;BME280_humidity;BME280_pressure;Samples;Min_cycle;Max_cycle;Signal;HPM_P1;HPM_P2
2021/12/18 07:11:44;;;;;;;21.13;10.10;;;;;;;3.51;81.28;100191.53;5440120;23;20145;-49
2021/12/18 07:14:11;;;;;;;22.00;11.00;;;;;;;3.52;81.05;100197.56;4856823;29;20037;-47
2021/12/18 07:16:36;;;;;;;20.45;10.65;;;;;;;3.47;81.17;100196.72;4862263;29;20029;-47
2021/12/18 07:19:01;;;;;;;19.63;9.75;;;;;;;3.43;81.25;100208.88;4858498;29;20050;-48
2021/12/18 07:21:27;;;;;;;20.08;10.15;;;;;;;3.46;80.78;100201.06;4849987;29;20034;-53
2021/12/18 07:23:52;;;;;;;21.60;10.88;;;;;;;3.44;81.60;100205.41;4844252;29;20034;-50
2021/12/18 07:26:18;;;;;;;19.50;9.77;;;;;;;3.41;80.99;100210.63;4843859;29;20034;-50
2021/12/18 07:28:43;;;;;;;20.80;10.90;;;;;;;3.47;80.64;100210.56;4842510;29;20048;-48
2021/12/18 07:31:08;;;;;;;23.75;11.93;;;;;;;3.38;81.18;100210.66;4840977;29;20026;-48
2021/12/18 07:33:37;;;;;;;19.88;9.93;;;;;;;3.37;81.38;100203.72;4838987;29;20064;-50
2021/12/18 07:36:02;;;;;;;20.00;10.07;;;;;;;3.38;81.70;100205.47;4841057;29;20044;-48
2021/12/18 07:38:28;;;;;;;19.75;10.27;;;;;;;3.51;80.47;100201.91;4840349;29;20482;-51
2021/12/18 07:40:54;;;;;;;19.48;10.52;;;;;;;3.71;80.11;100208.63;4854042;29;20041;-46
2021/12/18 07:43:19;;;;;;;17.85;9.73;;;;;;;3.63;80.09;100200.06;4839794;29;20146;-48
2021/12/18 07:45:45;;;;;;;18.52;9.27;;;;;;;3.64;80.08;100204.38;4840426;29;20040;-48
2021/12/18 07:48:10;;;;;;;20.08;10.05;;;;;;;3.55;80.49;100203.59;4841178;29;20025;-51
2021/12/18 07:50:35;;;;;;;20.50;10.55;;;;;;;3.62;79.83;100198.38;4841582;29;20042;-49
2021/12/18 07:53:01;;;;;;;20.40;10.20;;;;;;;3.66;nan;100200.91;4841237;29;20150;-53
2021/12/18 07:55:28;;;;;;;17.58;9.25;;;;;;;3.70;79.18;100191.34;4843366;29;20025;-52
2021/12/18 07:57:54;;;;;;;18.33;10.13;;;;;;;3.61;80.37;100197.47;4846801;29;20036;-51
2021/12/18 08:00:20;;;;;;;20.23;10.02;;;;;;;3.82;78.71;100196.44;4840501;29;20390;-48
2021/12/18 08:02:45;;;;;;;17.33;9.57;;;;;;;3.81;78.68;100197.31;4840166;29;20566;-53
2021/12/18 08:05:11;;;;;;;19.13;9.98;;;;;;;3.60;80.11;100200.09;4852770;29;20037;-49
2021/12/18 08:07:36;;;;;;;19.27;10.80;;;;;;;3.56;79.62;100199.25;4841412;29;20044;-53
2021/12/18 08:10:02;;;;;;;18.33;10.00;;;;;;;3.54;80.36;100201.88;4842109;29;20086;-53
2021/12/18 08:12:28;;;;;;;18.60;10.15;;;;;;;3.68;79.49;100203.47;4841811;29;20045;-54
2021/12/18 08:14:55;;;;;;;19.50;10.70;;;;;;;3.66;79.59;100202.66;4841288;29;20034;-52
2021/12/18 08:17:21;;;;;;;17.63;10.00;;;;;;;3.71;79.16;100204.31;4848723;29;20045;-53
2021/12/18 08:19:47;;;;;;;18.27;9.38;;;;;;;3.78;79.15;100194.72;4852041;29;20030;-53
2021/12/18 08:22:12;;;;;;;21.02;11.00;;;;;;;3.78;78.52;100198.19;4841620;29;20033;-54
2021/12/18 08:24:37;;;;;;;19.08;10.68;;;;;;;3.65;79.57;100187.94;4841387;29;20284;-53
2021/12/18 08:27:03;;;;;;;20.38;10.20;;;;;;;3.90;78.64;100193.78;4841667;29;20041;-53
2021/12/18 08:29:28;;;;;;;20.30;11.85;;;;;;;3.73;78.84;100197.38;4843592;29;20086;-53
2021/12/18 08:31:54;;;;;;;22.73;10.65;;;;;;;3.59;79.63;100191.47;4847775;29;20046;-52
2021/12/18 08:34:20;;;;;;;20.38;10.45;;;;;;;3.65;79.32;100188.81;4840969;29;20038;-53
2021/12/18 08:36:45;;;;;;;22.73;11.10;;;;;;;3.61;80.19;100194.88;4841346;29;20513;-51
2021/12/18 08:39:11;;;;;;;20.77;10.95;;;;;;;3.73;80.09;100189.59;4851269;29;20034;-47
2021/12/18 08:41:38;;;;;;;18.30;10.77;;;;;;;3.72;79.88;100202.59;4854348;29;20081;-50
2021/12/18 08:44:04;;;;;;;19.88;11.13;;;;;;;3.89;78.60;100198.09;4843138;29;20042;-51
2021/12/18 08:46:29;;;;;;;18.73;10.27;;;;;;;3.74;79.66;100199.09;4850620;29;20049;-53
2021/12/18 08:48:54;;;;;;;18.65;9.50;;;;;;;3.82;78.89;100196.44;4843937;29;20033;-52
2021/12/18 08:51:20;;;;;;;21.83;10.70;;;;;;;3.80;79.39;100200.78;4841872;29;20033;-49
2021/12/18 08:53:45;;;;;;;20.52;10.60;;;;;;;3.82;79.23;100196.44;4844100;29;20041;-50
2021/12/18 08:56:10;;;;;;;20.02;10.48;;;;;;;3.73;79.45;100199.97;4844803;29;20056;-52
2021/12/18 08:58:36;;;;;;;23.55;11.15;;;;;;;3.79;79.29;100199.06;4843895;29;20056;-49
2021/12/18 09:01:02;;;;;;;20.95;10.75;;;;;;;3.86;79.09;100195.53;4844420;29;20030;-51
2021/12/18 09:03:27;;;;;;;18.38;9.88;;;;;;;3.95;78.58;100192.84;4844406;29;20037;-50
2021/12/18 09:05:54;;;;;;;21.55;11.30;;;;;;;4.01;78.80;100192.78;4844670;29;20033;-50
2021/12/18 09:08:19;;;;;;;19.25;10.35;;;;;;;3.79;79.89;100191.28;4843783;29;20117;-53
2021/12/18 09:10:45;;;;;;;20.08;10.43;;;;;;;4.11;78.17;100205.69;4843363;29;20044;-51
2021/12/18 09:13:10;;;;;;;23.42;10.68;;;;;;;3.89;79.10;100192.91;4843454;29;20029;-49
2021/12/18 09:15:35;;;;;;;21.88;10.57;;;;;;;3.86;78.83;100198.13;4843121;29;20045;-50
2021/12/18 09:18:01;;;;;;;21.50;10.98;;;;;;;3.80;79.34;100195.59;4843732;29;20022;-48
2021/12/18 09:20:26;;;;;;;21.67;10.70;;;;;;;3.92;79.07;100203.28;4841984;29;20486;-49
2021/12/18 09:22:52;;;;;;;20.52;10.52;;;;;;;3.94;78.74;100195.47;4843680;29;20045;-49
2021/12/18 09:25:17;;;;;;;20.08;10.27;;;;;;;4.05;78.23;100193.59;4842817;29;20414;-49
2021/12/18 09:27:42;;;;;;;19.85;10.07;;;;;;;3.87;79.02;100192.06;4843229;29;20063;-51
2021/12/18 09:30:10;;;;;;;20.73;10.73;;;;;;;3.86;79.59;100197.28;4845839;29;20062;-51
2021/12/18 09:32:36;;;;;;;20.67;11.02;;;;;;;3.95;78.71;100192.84;4837865;29;20034;-49
2021/12/18 09:35:02;;;;;;;19.73;10.35;;;;;;;3.97;79.12;100191.09;4819356;29;20081;-51
2021/12/18 09:37:27;;;;;;;20.73;11.43;;;;;;;3.94;78.72;100185.06;4843855;29;20041;-51
2021/12/18 09:39:52;;;;;;;19.80;11.05;;;;;;;3.88;78.79;100188.56;4842578;29;20044;-50
2021/12/18 09:42:18;;;;;;;21.38;10.52;;;;;;;4.11;78.30;100183.16;4843194;29;20495;-48
2021/12/18 09:44:43;;;;;;;24.73;11.00;;;;;;;4.10;78.47;100183.19;4850682;29;20403;-48
2021/12/18 09:47:08;;;;;;;25.30;12.05;;;;;;;3.93;79.03;100189.41;4817131;29;20055;-50
2021/12/18 09:49:34;;;;;;;19.40;10.75;;;;;;;4.03;79.11;100175.47;4833623;29;20041;-51
2021/12/18 09:52:01;;;;;;;20.98;11.23;;;;;;;3.90;79.55;100167.81;4826173;29;20034;-53
2021/12/18 09:54:26;;;;;;;21.58;11.05;;;;;;;3.95;80.12;100172.06;4841019;29;20034;-53
2021/12/18 09:56:52;;;;;;;22.48;11.60;;;;;;;3.88;80.52;100169.56;4842151;29;20022;-53
2021/12/18 09:59:17;;;;;;;23.85;12.07;;;;;;;3.97;80.56;100165.13;4842439;29;20147;-53
2021/12/18 10:01:43;;;;;;;24.05;12.05;;;;;;;4.22;78.93;100172.66;4841521;29;20025;-52
2021/12/18 10:04:23;;;;;;;22.25;11.43;;;;;;;4.20;78.96;100166.63;4840147;29;20026;-53
2021/12/18 10:06:49;;;;;;;22.52;11.85;;;;;;;4.15;79.12;100173.59;4842742;29;20371;-52
2021/12/18 10:09:17;;;;;;;23.27;11.38;;;;;;;4.20;79.15;100182.22;4842076;29;20490;-49
2021/12/18 10:11:56;;;;;;;23.45;11.98;;;;;;;4.33;78.42;100178.56;4841740;29;20026;-53
2021/12/18 10:14:31;;;;;;;24.02;12.45;;;;;;;4.31;78.20;100169.09;4842310;29;20121;-53
2021/12/18 10:16:57;;;;;;;22.20;11.68;;;;;;;4.31;77.37;100159.56;4841962;29;20113;-55
2021/12/18 10:19:30;;;;;;;26.27;12.23;;;;;;;4.17;78.85;100170.09;4841278;29;20053;-53
2021/12/18 10:21:57;;;;;;;22.80;11.45;;;;;;;4.27;78.51;100163.06;4841731;29;20108;-48
2021/12/18 10:24:23;;;;;;;22.60;10.73;;;;;;;4.45;77.47;100168.03;4840456;29;20106;-50
2021/12/18 10:26:49;;;;;;;20.25;10.32;;;;;;;4.27;78.19;100163.06;4841036;29;20431;-50
2021/12/18 10:29:35;;;;;;;21.17;11.07;;;;;;;4.20;78.64;100164.03;4841111;29;20057;-53
2021/12/18 10:32:08;;;;;;;23.95;11.60;;;;;;;4.00;79.63;100162.50;4840958;29;20042;-48
2021/12/18 10:34:33;;;;;;;21.08;12.25;;;;;;;3.99;79.76;100158.19;4839990;29;20114;-49
2021/12/18 10:37:16;;;;;;;23.08;11.65;;;;;;;3.89;80.66;100151.38;4840512;29;20051;-52
2021/12/18 10:39:50;;;;;;;26.15;10.70;;;;;;;3.86;80.57;100156.59;4841335;29;20069;-48
2021/12/18 10:42:31;;;;;;;20.90;10.30;;;;;;;4.11;79.46;100153.72;4840737;29;20070;-49
2021/12/18 10:45:17;;;;;;;19.33;10.13;;;;;;;3.96;79.66;100145.25;4840753;29;20094;-48
2021/12/18 10:47:52;;;;;;;19.20;9.68;;;;;;;4.03;80.47;100139.09;4840395;29;20113;-49
2021/12/18 10:50:20;;;;;;;17.15;8.48;;;;;;;3.93;79.42;100142.69;4841283;29;20041;-50
2021/12/18 10:52:52;;;;;;;17.00;8.98;;;;;;;4.08;78.33;100135.59;4840431;29;20118;-53
2021/12/18 10:55:17;;;;;;;16.55;9.18;;;;;;;4.13;79.09;100144.16;4840449;29;20034;-51
2021/12/18 10:57:52;;;;;;;17.08;8.13;;;;;;;3.83;79.40;100135.00;4840590;29;20041;-49
2021/12/18 11:00:20;;;;;;;19.92;9.02;;;;;;;3.86;79.65;100130.63;4841011;29;20574;-49
2021/12/18 11:02:46;;;;;;;16.42;8.02;;;;;;;4.15;78.37;100135.50;4844670;29;20038;-46
2021/12/18 11:05:17;;;;;;;17.85;8.00;;;;;;;4.26;77.41;100125.81;4840629;29;20053;-47
2021/12/18 11:07:44;;;;;;;15.15;8.32;;;;;;;4.10;79.09;100124.31;4839912;29;20045;-51
2021/12/18 11:10:41;;;;;;;17.85;9.10;;;;;;;3.82;79.62;100118.56;4824672;29;20517;-48
2021/12/18 11:15:50;;;;;;;19.83;10.50;;;;;;;3.92;78.94;100120.19;4820667;29;20042;-49
2021/12/18 11:18:17;;;;;;;15.63;8.30;;;;;;;4.14;77.27;100120.78;4836415;29;20026;-52
2021/12/18 11:20:42;;;;;;;18.77;8.70;;;;;;;4.03;77.54;100118.31;4839045;29;20041;-49
2021/12/18 11:23:07;;;;;;;17.48;7.75;;;;;;;4.11;77.31;100112.19;4838331;29;20042;-50
2021/12/18 11:25:33;;;;;;;14.93;7.82;;;;;;;4.21;77.35;100111.19;4822081;29;20044;-51
2021/12/18 11:27:58;;;;;;;23.27;15.13;;;;;;;3.71;79.42;100102.22;4837451;29;20033;-47
2021/12/18 11:30:23;;;;;;;19.33;10.23;;;;;;;3.71;79.82;100094.44;4823254;29;20045;-50
2021/12/18 11:32:54;;;;;;;19.10;8.85;;;;;;;3.85;79.55;100082.16;4836923;29;20451;-53
2021/12/18 11:35:20;;;;;;;17.00;7.63;;;;;;;3.82;79.96;100084.84;4838840;29;20026;-49
2021/12/18 11:37:49;;;;;;;16.55;8.40;;;;;;;3.77;80.44;100079.66;4838804;29;20082;-52
2021/12/18 11:40:16;;;;;;;16.50;7.78;;;;;;;4.08;78.60;100078.47;4838005;29;20458;-49
2021/12/18 11:42:42;;;;;;;13.43;6.90;;;;;;;3.95;78.22;100070.81;4838031;29;20037;-48
2021/12/18 11:45:08;;;;;;;14.30;7.35;;;;;;;3.88;79.34;100071.75;4839057;29;20030;-49
2021/12/18 11:47:34;;;;;;;15.68;7.45;;;;;;;3.89;78.53;100064.81;4838627;29;20427;-52
2021/12/18 11:50:01;;;;;;;14.95;7.78;;;;;;;3.84;78.77;100056.25;4838979;29;20041;-51
2021/12/18 11:52:26;;;;;;;17.90;9.10;;;;;;;3.59;79.81;100053.06;4838838;29;20029;-49
2021/12/18 11:54:59;;;;;;;18.10;8.60;;;;;;;3.46;80.88;100055.78;4836944;29;20483;-50
2021/12/18 11:57:43;;;;;;;18.27;8.18;;;;;;;3.40;80.99;100055.84;4843191;29;20334;-46
2021/12/18 12:00:17;;;;;;;17.58;8.52;;;;;;;3.29;80.92;100049.91;4845207;29;21092;-46
2021/12/18 12:02:49;;;;;;;18.27;8.43;;;;;;;3.27;80.73;100049.06;4840022;29;20038;-50
2021/12/18 12:05:15;;;;;;;17.08;7.65;;;;;;;3.42;80.39;100051.50;4843579;29;20117;-50
2021/12/18 12:07:42;;;;;;;17.60;8.65;;;;;;;3.29;80.52;100035.19;4851868;29;20033;-49
2021/12/18 12:10:35;;;;;;;16.98;7.88;;;;;;;3.38;80.73;100048.97;4846989;29;20057;-46
2021/12/18 12:13:00;;;;;;;16.83;8.88;;;;;;;3.11;81.76;100048.34;4847645;29;20468;-48
2021/12/18 12:15:27;;;;;;;19.42;8.57;;;;;;;2.98;81.90;100044.13;4842945;29;20042;-48
2021/12/18 12:18:11;;;;;;;16.73;7.88;;;;;;;3.24;82.06;100043.91;4851601;29;20033;-49
2021/12/18 12:20:42;;;;;;;19.45;9.13;;;;;;;3.72;81.97;100039.09;4840460;29;20116;-52
2021/12/18 12:23:09;;;;;;;16.05;7.93;;;;;;;3.50;80.18;100034.13;4843960;29;20034;-48
2021/12/18 12:25:44;;;;;;;16.15;8.25;;;;;;;3.39;80.97;100043.75;4842408;29;20026;-48
2021/12/18 12:28:11;;;;;;;15.93;7.65;;;;;;;3.49;80.26;100039.34;4845786;29;20038;-48
2021/12/18 12:30:42;;;;;;;16.05;8.35;;;;;;;3.56;79.91;100031.47;4845919;29;20041;-49
2021/12/18 12:33:10;;;;;;;18.43;8.50;;;;;;;3.52;80.16;100032.38;4841111;29;20073;-53
2021/12/18 12:36:03;;;;;;;17.50;7.50;;;;;;;3.76;79.25;100028.66;4844554;29;20646;-51
2021/12/18 12:38:28;;;;;;;17.60;8.05;;;;;;;3.75;79.47;100031.25;4826573;29;20099;-51
2021/12/18 12:40:57;;;;;;;17.58;8.65;;;;;;;3.39;80.49;100020.41;4828577;29;20042;-52
2021/12/18 12:43:26;;;;;;;21.67;10.77;;;;;;;3.40;81.49;100035.09;4844436;29;20033;-54
2021/12/18 12:45:56;;;;;;;28.60;16.67;;;;;;;3.65;79.84;100032.22;4850884;29;20049;-53
2021/12/18 12:48:21;;;;;;;34.40;18.60;;;;;;;3.73;79.44;100023.50;4859486;29;20453;-55
2021/12/18 12:50:57;;;;;;;17.83;8.20;;;;;;;4.07;77.77;100015.28;4846578;29;20054;-54
2021/12/18 12:53:51;;;;;;;18.52;9.10;;;;;;;3.92;78.79;100015.47;4850931;29;20401;-56
2021/12/18 12:56:18;;;;;;;62.35;23.58;;;;;;;3.49;80.27;100027.22;4848567;29;20102;-53
2021/12/18 12:58:44;;;;;;;28.60;13.35;;;;;;;3.34;81.15;100027.41;4845761;29;20094;-52
2021/12/18 13:01:09;;;;;;;22.75;10.32;;;;;;;3.18;81.23;100025.81;4863805;29;20029;-54
2021/12/18 13:03:48;;;;;;;15.95;7.55;;;;;;;3.33;81.12;100021.31;4848262;29;20130;-53
2021/12/18 13:06:24;;;;;;;19.42;9.07;;;;;;;3.23;81.05;100016.25;4841279;29;20030;-50
2021/12/18 13:08:49;;;;;;;24.60;10.43;;;;;;;3.26;81.43;100018.81;4845788;29;20112;-54
2021/12/18 13:11:21;;;;;;;16.90;7.75;;;;;;;3.42;80.45;100020.38;4842541;29;20578;-52
2021/12/18 13:13:47;;;;;;;16.35;8.57;;;;;;;3.52;80.58;100011.63;4843537;29;20030;-49
2021/12/18 13:16:14;;;;;;;61.20;25.08;;;;;;;3.20;81.66;100014.56;4843588;29;20056;-54
2021/12/18 13:18:49;;;;;;;21.67;10.13;;;;;;;3.34;80.68;100017.00;4842953;29;20483;-53
2021/12/18 13:21:19;;;;;;;25.30;10.85;;;;;;;3.26;81.28;100005.84;4843887;29;20026;-49
2021/12/18 13:23:58;;;;;;;16.50;8.05;;;;;;;3.37;80.65;100006.59;4843030;29;20042;-49
2021/12/18 13:26:27;;;;;;;16.80;7.60;;;;;;;3.15;80.57;100010.28;4843979;29;20022;-50
2021/12/18 13:29:03;;;;;;;14.95;7.28;;;;;;;3.46;80.39;100006.50;4843733;29;20040;-49
2021/12/18 13:31:31;;;;;;;20.52;8.73;;;;;;;3.43;80.56;100001.34;4843525;29;20724;-50
2021/12/18 13:34:04;;;;;;;25.38;7.53;;;;;;;3.52;80.24;100001.25;4843548;29;20113;-50
2021/12/18 13:36:47;;;;;;;34.00;15.75;;;;;;;3.25;81.04;99993.75;4842879;29;20033;-53
2021/12/18 13:39:17;;;;;;;21.65;11.10;;;;;;;3.75;79.15;100000.97;4839726;29;20041;-52
2021/12/18 13:42:18;;;;;;;16.85;8.45;;;;;;;3.53;79.77;99992.56;4844415;29;20041;-52
2021/12/18 13:44:47;;;;;;;16.27;8.00;;;;;;;3.49;80.39;99990.91;4823354;29;20115;-55
2021/12/18 13:47:13;;;;;;;21.67;9.88;;;;;;;3.36;80.94;99985.84;4807567;29;20412;-51
2021/12/18 13:49:39;;;;;;;72.75;33.72;;;;;;;3.30;80.81;99985.06;4806614;29;20034;-51
2021/12/18 13:52:05;;;;;;;24.23;12.48;;;;;;;3.57;80.19;99978.69;4812634;29;20041;-51
2021/12/18 13:54:33;;;;;;;34.85;16.85;;;;;;;3.89;80.35;99981.75;4812134;29;20073;-52
2021/12/18 13:56:59;;;;;;;23.58;12.18;;;;;;;3.96;79.41;99973.88;4804266;29;20031;-54
2021/12/18 13:59:24;;;;;;;47.60;21.42;;;;;;;3.23;81.96;99987.72;4807888;29;20027;-49
2021/12/18 14:01:51;;;;;;;19.30;10.05;;;;;;;3.48;81.21;99986.59;4807957;29;20075;-49
2021/12/18 14:04:18;;;;;;;18.38;9.20;;;;;;;3.54;80.58;99989.13;4826100;29;20105;-51
2021/12/18 14:06:44;;;;;;;23.92;12.45;;;;;;;3.38;81.09;99987.56;4804390;29;20579;-51
2021/12/18 14:09:23;;;;;;;19.23;9.73;;;;;;;3.36;81.28;99978.06;4804137;29;20063;-50
2021/12/18 14:11:58;;;;;;;16.08;8.68;;;;;;;3.62;80.41;99980.38;4793261;29;20123;-49
2021/12/18 14:14:42;;;;;;;17.92;8.88;;;;;;;3.81;79.46;99984.44;4807139;29;20043;-50
2021/12/18 14:17:12;;;;;;;20.15;8.80;;;;;;;3.75;79.84;99985.41;4812152;29;20134;-50
2021/12/18 14:19:39;;;;;;;16.75;9.10;;;;;;;3.70;79.89;99991.53;4812510;29;20550;-51
2021/12/18 14:22:05;;;;;;;20.10;9.90;;;;;;;3.70;79.88;99979.41;4842030;29;20030;-53
2021/12/18 14:24:30;;;;;;;19.23;9.70;;;;;;;3.77;79.43;99986.22;4848905;29;20121;-50
2021/12/18 14:27:14;;;;;;;20.70;9.07;;;;;;;3.63;79.89;99971.72;4851295;29;20446;-48
2021/12/18 14:29:49;;;;;;;20.13;9.57;;;;;;;3.19;81.88;99986.03;4844656;29;20042;-49
2021/12/18 14:32:15;;;;;;;20.13;9.43;;;;;;;3.08;83.01;99989.59;4845879;29;20041;-53
2021/12/18 14:34:41;;;;;;;19.58;8.50;;;;;;;3.32;81.48;99977.25;4841976;29;20033;-53
2021/12/18 14:37:13;;;;;;;18.98;9.07;;;;;;;3.17;82.28;99980.03;4842247;29;20026;-51
2021/12/18 14:39:39;;;;;;;15.85;7.25;;;;;;;3.02;83.53;99983.59;4840116;29;20044;-48
2021/12/18 14:42:11;;;;;;;17.80;8.15;;;;;;;3.21;82.45;99974.78;4851133;29;20036;-53
2021/12/18 14:44:42;;;;;;;17.75;8.52;;;;;;;3.13;82.50;99975.72;4845989;29;20039;-51
2021/12/18 14:47:20;;;;;;;19.98;9.10;;;;;;;3.36;81.50;99968.56;4848997;29;20124;-48
2021/12/18 14:49:57;;;;;;;17.50;8.88;;;;;;;3.43;81.65;99974.53;4849912;29;20038;-53
2021/12/18 14:52:22;;;;;;;17.55;8.52;;;;;;;3.26;82.54;99972.13;4839153;29;20025;-50
2021/12/18 14:54:48;;;;;;;18.83;8.60;;;;;;;3.28;81.96;99976.44;4841330;29;20037;-50
2021/12/18 14:57:22;;;;;;;19.88;8.60;;;;;;;3.44;81.40;99979.72;4841526;29;20030;-52
2021/12/18 14:59:47;;;;;;;17.88;8.52;;;;;;;3.54;80.72;99972.66;4841763;29;20030;-50
2021/12/18 15:02:13;;;;;;;17.20;7.65;;;;;;;3.65;80.15;99975.13;4840704;29;20037;-49
2021/12/18 15:04:38;;;;;;;15.82;7.97;;;;;;;3.66;80.22;99979.47;4841290;29;20030;-53
2021/12/18 15:07:04;;;;;;;16.30;8.02;;;;;;;3.57;80.24;99991.66;4841419;29;20033;-50
2021/12/18 15:09:29;;;;;;;18.52;8.15;;;;;;;3.49;80.93;99982.25;4840680;29;20072;-50
2021/12/18 15:11:54;;;;;;;16.92;7.82;;;;;;;3.23;81.66;99980.78;4840762;29;20078;-52
2021/12/18 15:14:21;;;;;;;19.88;8.40;;;;;;;3.08;83.10;99983.56;4839964;29;20033;-52
2021/12/18 15:16:47;;;;;;;33.92;16.83;;;;;;;3.18;83.06;99976.56;4841669;29;20033;-51
2021/12/18 15:19:20;;;;;;;27.40;14.90;;;;;;;3.21;82.59;99979.13;4841103;29;20034;-48
2021/12/18 15:21:48;;;;;;;41.00;20.88;;;;;;;3.23;82.48;99973.00;4841151;29;20054;-48
2021/12/18 15:24:14;;;;;;;28.30;13.55;;;;;;;3.18;82.54;99971.38;4840353;29;20033;-48
2021/12/18 15:26:40;;;;;;;58.58;29.80;;;;;;;3.33;82.91;99966.00;4839847;29;20046;-54
2021/12/18 15:29:07;;;;;;;21.42;9.27;;;;;;;3.53;81.32;99964.03;4841653;29;20045;-48
2021/12/18 15:31:32;;;;;;;18.95;9.35;;;;;;;3.32;82.78;99966.88;4841168;29;20026;-50
2021/12/18 15:33:57;;;;;;;20.58;11.05;;;;;;;3.37;82.61;99966.81;4840441;29;20555;-49
2021/12/18 15:36:23;;;;;;;19.45;11.18;;;;;;;3.27;83.32;99958.31;4840768;29;20196;-53
2021/12/18 15:38:49;;;;;;;20.13;9.55;;;;;;;3.45;81.96;99952.91;4841527;29;20101;-49
2021/12/18 15:41:15;;;;;;;19.33;8.30;;;;;;;3.54;81.46;99947.63;4841109;29;20397;-52
2021/12/18 15:43:41;;;;;;;17.85;8.00;;;;;;;3.61;81.10;99950.09;4840576;29;20045;-52
2021/12/18 15:46:06;;;;;;;19.85;9.25;;;;;;;3.61;81.48;99939.72;4840922;29;20041;-51
2021/12/18 15:48:32;;;;;;;18.88;8.45;;;;;;;3.54;81.58;99937.22;4840983;29;20511;-52
2021/12/18 15:50:57;;;;;;;17.92;8.57;;;;;;;3.47;81.66;99930.38;4840373;29;20033;-52
2021/12/18 15:53:23;;;;;;;18.30;8.02;;;;;;;3.49;81.53;99943.34;4841059;29;20456;-53
2021/12/18 15:55:48;;;;;;;18.33;7.80;;;;;;;3.35;82.58;99935.72;4840057;29;20034;-52
2021/12/18 15:58:13;;;;;;;20.23;9.00;;;;;;;3.29;82.18;99926.28;4840900;29;20029;-51
2021/12/18 16:00:40;;;;;;;19.08;8.77;;;;;;;3.36;82.52;99932.25;4840979;29;20025;-48
2021/12/18 16:03:06;;;;;;;18.02;8.25;;;;;;;3.50;81.45;99925.16;4845841;29;20022;-50
2021/12/18 16:05:33;;;;;;;17.92;8.20;;;;;;;3.49;81.08;99922.59;4846314;29;20505;-52
2021/12/18 16:07:59;;;;;;;18.88;9.20;;;;;;;3.24;82.05;99922.03;4846858;29;20037;-50
2021/12/18 16:10:28;;;;;;;18.25;8.43;;;;;;;3.32;82.01;99925.38;4847019;29;20037;-51
2021/12/18 16:12:53;;;;;;;18.77;8.43;;;;;;;3.18;82.18;99922.94;4847214;29;20034;-49
2021/12/18 16:15:20;;;;;;;18.00;7.93;;;;;;;3.18;82.47;99919.50;4846122;29;20037;-49
2021/12/18 16:17:45;;;;;;;19.13;8.82;;;;;;;3.11;83.19;99923.91;4846942;29;20031;-52
2021/12/18 16:20:11;;;;;;;19.25;10.68;;;;;;;2.93;83.82;99911.13;4846986;29;20030;-53
2021/12/18 16:22:37;;;;;;;29.65;18.75;;;;;;;3.16;83.32;99931.63;4847042;29;20498;-52
2021/12/18 16:25:02;;;;;;;20.95;9.10;;;;;;;3.33;82.12;99927.09;4846360;29;20065;-48
2021/12/18 16:27:28;;;;;;;29.83;13.02;;;;;;;3.24;82.56;99919.44;4845924;29;20129;-51
2021/12/18 16:29:53;;;;;;;21.65;9.25;;;;;;;3.21;82.94;99922.91;4846840;29;20042;-48
2021/12/18 16:32:18;;;;;;;31.33;16.25;;;;;;;3.29;83.10;99917.63;4847059;29;20394;-52
2021/12/18 16:34:44;;;;;;;20.55;9.20;;;;;;;3.29;82.44;99930.59;4846509;29;20055;-48
2021/12/18 16:37:09;;;;;;;17.45;7.95;;;;;;;3.15;82.57;99924.72;4846245;29;20028;-49
2021/12/18 16:39:36;;;;;;;17.50;7.93;;;;;;;3.20;82.45;99923.81;4846440;29;20443;-49
2021/12/18 16:42:01;;;;;;;26.25;17.98;;;;;;;3.07;83.27;99923.06;4846676;29;20036;-52
2021/12/18 16:44:27;;;;;;;19.23;10.27;;;;;;;3.06;82.80;99934.31;4846218;29;20030;-50
2021/12/18 16:46:52;;;;;;;20.20;10.38;;;;;;;3.09;83.16;99936.84;4846694;29;20034;-49
2021/12/18 16:49:19;;;;;;;24.40;11.45;;;;;;;3.18;82.33;99932.47;4846042;29;20033;-52
2021/12/18 16:51:44;;;;;;;17.85;7.95;;;;;;;3.20;81.74;99929.00;4846511;29;20057;-52
2021/12/18 16:54:09;;;;;;;17.27;7.95;;;;;;;2.92;83.42;99927.53;4845861;29;20055;-50
2021/12/18 16:56:35;;;;;;;18.77;8.93;;;;;;;3.09;82.89;99931.66;4845604;29;20149;-53
2021/12/18 16:59:00;;;;;;;16.55;7.38;;;;;;;3.08;83.27;99936.88;4849100;29;20030;-51
2021/12/18 17:01:26;;;;;;;20.70;9.57;;;;;;;2.90;83.43;99940.53;4846481;29;20089;-49
2021/12/18 17:03:55;;;;;;;19.15;9.98;;;;;;;3.02;83.24;99937.81;4846165;29;20037;-48
2021/12/18 17:06:20;;;;;;;21.27;9.73;;;;;;;2.93;83.31;99943.09;4846711;29;20030;-51
2021/12/18 17:08:45;;;;;;;19.08;8.80;;;;;;;2.86;84.17;99946.63;4846019;29;20028;-48
2021/12/18 17:11:12;;;;;;;16.58;7.53;;;;;;;3.10;82.41;99955.91;4846038;29;20076;-51
2021/12/18 17:13:37;;;;;;;18.73;7.80;;;;;;;3.09;82.53;99954.16;4844319;29;20098;-52
2021/12/18 17:16:03;;;;;;;17.98;8.43;;;;;;;2.79;82.84;99950.16;4842451;29;20435;-49
2021/12/18 17:18:28;;;;;;;18.67;8.15;;;;;;;2.75;83.42;99948.44;4844846;29;20030;-49
2021/12/18 17:20:54;;;;;;;17.20;7.70;;;;;;;2.59;83.75;99952.91;4855057;29;20026;-53
2021/12/18 17:23:19;;;;;;;15.40;7.55;;;;;;;2.75;83.75;99943.25;4846568;29;20550;-53
2021/12/18 17:25:45;;;;;;;14.52;6.85;;;;;;;2.84;82.67;99938.84;4842383;29;20037;-52
2021/12/18 17:28:10;;;;;;;16.52;7.65;;;;;;;2.73;82.99;99937.25;4843418;29;20494;-50
2021/12/18 17:30:36;;;;;;;17.30;7.88;;;;;;;2.77;83.04;99937.19;4843161;29;20034;-51
2021/12/18 17:33:02;;;;;;;17.45;8.07;;;;;;;2.89;82.80;99936.22;4842663;29;20026;-52
2021/12/18 17:35:28;;;;;;;13.27;5.72;;;;;;;2.90;81.99;99932.75;4841420;29;20236;-49
2021/12/18 17:37:54;;;;;;;15.95;7.05;;;;;;;2.92;82.04;99930.13;4842478;29;20594;-49
2021/12/18 17:40:23;;;;;;;14.93;6.75;;;;;;;2.92;82.15;99920.63;4852471;29;20036;-51
2021/12/18 17:42:50;;;;;;;17.15;8.18;;;;;;;2.98;82.17;99928.34;4842826;29;20106;-48
2021/12/18 17:45:15;;;;;;;15.27;6.43;;;;;;;2.89;82.25;99919.78;4842983;29;20026;-51
2021/12/18 17:47:40;;;;;;;15.25;7.32;;;;;;;2.83;82.91;99921.59;4842532;29;20032;-47
2021/12/18 17:50:06;;;;;;;17.17;7.53;;;;;;;2.75;82.89;99917.34;4842253;29;20117;-49
2021/12/18 17:52:31;;;;;;;16.95;7.28;;;;;;;2.73;83.55;99913.94;4842329;29;20110;-51
2021/12/18 17:54:57;;;;;;;15.75;7.28;;;;;;;2.64;83.90;99907.09;4842540;29;20030;-52
2021/12/18 17:57:22;;;;;;;19.42;8.65;;;;;;;2.41;84.65;99904.72;4842511;29;20026;-49
2021/12/18 17:59:49;;;;;;;16.90;7.78;;;;;;;2.25;85.57;99905.72;4842768;29;20029;-50
2021/12/18 18:02:15;;;;;;;18.25;9.07;;;;;;;2.47;85.16;99902.06;4842059;29;20444;-50
2021/12/18 18:04:40;;;;;;;20.08;9.20;;;;;;;2.54;84.53;99900.25;4826050;29;20491;-50
2021/12/18 18:07:06;;;;;;;20.75;9.02;;;;;;;2.63;84.57;99896.75;4842484;29;20033;-51
2021/12/18 18:09:36;;;;;;;21.30;10.52;;;;;;;2.75;83.86;99891.44;4842209;29;20069;-50
2021/12/18 22:07:29;;;;;;;11.80;5.13;;;;;;;1.75;88.48;99800.81;5293683;23;20086;-47
2021/12/18 22:09:55;;;;;;;14.00;4.60;;;;;;;1.64;88.43;99785.38;4855166;29;20129;-52
2021/12/18 22:12:20;;;;;;;11.88;4.60;;;;;;;1.58;88.97;99775.97;4858642;29;20482;-47
2021/12/18 22:14:45;;;;;;;13.52;5.03;;;;;;;1.46;89.60;99772.59;4849268;29;20037;-52
2021/12/18 22:17:11;;;;;;;13.93;5.35;;;;;;;1.52;89.32;99785.50;4870942;29;20096;-51
2021/12/18 22:19:36;;;;;;;13.55;4.82;;;;;;;1.65;88.64;99774.16;4878128;29;20035;-51
2021/12/18 22:22:05;;;;;;;14.25;6.32;;;;;;;1.62;88.59;99772.47;4864981;29;20498;-50
2021/12/18 22:24:30;;;;;;;14.88;5.75;;;;;;;1.60;89.13;99776.78;4873335;29;20449;-53
2021/12/18 22:26:56;;;;;;;14.13;5.60;;;;;;;1.71;88.64;99773.28;4876268;29;20498;-50
2021/12/18 22:29:21;;;;;;;11.25;4.15;;;;;;;1.85;88.04;99763.66;4878020;29;20037;-50
2021/12/18 22:31:47;;;;;;;10.55;3.88;;;;;;;1.77;88.35;99774.06;4876251;29;20059;-51
2021/12/18 22:34:12;;;;;;;10.52;3.72;;;;;;;1.90;87.55;99764.50;4871760;29;20047;-49
2021/12/18 22:36:37;;;;;;;12.25;4.05;;;;;;;1.84;87.36;99769.72;4874141;29;20093;-49
2021/12/18 22:39:03;;;;;;;13.07;4.50;;;;;;;1.88;87.50;99774.84;4861032;29;20029;-51